Time;durP1;ratioP1;P1;durP2;ratioP2;P2;SDS_P1;SDS_P2;PMS_P1;PMS_P2;Temp;Humidity;BMP_temperature;BMP_pressure;BME280_temperature;BME280_humidity;BME280_pressure;Samples;Min_cycle;Max_cycle;Signal;HPM_P1;HPM_P2
2021/09/18 08:06:06;;;;;;;4.05;2.70;;;24.40;99.90;;;;;;4952482;29;20287;-77
2021/09/18 08:08:33;;;;;;;3.90;2.63;;;23.70;99.90;;;;;;4954482;29;20215;-78
2021/09/18 08:11:00;;;;;;;3.80;2.67;;;24.00;99.90;;;;;;4954524;28;20569;-77
2021/09/18 08:13:27;;;;;;;3.05;2.42;;;23.70;99.90;;;;;;4954427;29;20235;-76
2021/09/18 08:15:53;;;;;;;4.85;2.55;;;23.70;99.90;;;;;;4954522;29;20208;-76
2021/09/18 08:18:20;;;;;;;4.00;2.40;;;23.80;99.90;;;;;;4954587;29;20212;-78
2021/09/18 08:20:47;;;;;;;3.47;2.42;;;23.40;99.90;;;;;;4954480;28;20228;-77
2021/09/18 08:23:15;;;;;;;4.15;2.20;;;23.40;99.90;;;;;;4941426;29;20228;-81
2021/09/18 08:25:42;;;;;;;3.03;1.90;;;23.70;99.90;;;;;;4934275;29;20212;-78
2021/09/18 08:28:09;;;;;;;2.65;1.92;;;23.90;99.90;;;;;;4934928;29;20212;-78
2021/09/18 08:30:36;;;;;;;2.90;1.75;;;24.00;99.90;;;;;;4934731;29;20219;-79
2021/09/18 08:33:03;;;;;;;3.10;2.20;;;23.80;99.90;;;;;;4934646;29;20236;-78
2021/09/18 08:35:29;;;;;;;2.13;1.83;;;23.80;99.90;;;;;;4935149;29;20209;-77
2021/09/18 08:37:56;;;;;;;2.75;2.10;;;23.80;99.90;;;;;;4935166;29;20209;-76
2021/09/18 08:40:27;;;;;;;2.33;1.90;;;23.80;99.90;;;;;;4934934;29;20564;-78
2021/09/18 08:42:55;;;;;;;3.85;2.15;;;23.80;99.90;;;;;;4935210;29;20213;-78
2021/09/18 08:45:22;;;;;;;3.13;2.10;;;23.80;99.90;;;;;;4934525;29;20244;-77
2021/09/18 08:47:50;;;;;;;3.08;2.25;;;24.10;99.90;;;;;;4937703;29;20208;-79
2021/09/18 08:50:20;;;;;;;2.45;1.95;;;24.40;99.90;;;;;;4938276;29;20216;-78
2021/09/18 08:52:47;;;;;;;2.60;2.00;;;24.30;99.90;;;;;;4938311;29;20561;-79
2021/09/18 08:55:15;;;;;;;2.17;1.63;;;24.30;99.90;;;;;;4938510;29;20682;-78
2021/09/18 08:57:44;;;;;;;2.35;1.85;;;24.30;99.90;;;;;;4938559;29;20216;-78
2021/09/18 09:00:54;;;;;;;3.92;2.58;;;23.90;99.90;;;;;;4938223;29;20212;-78
2021/09/18 09:03:26;;;;;;;5.63;2.47;;;24.40;99.90;;;;;;4938397;29;20216;-80
2021/09/18 09:06:00;;;;;;;4.13;2.55;;;24.30;99.90;;;;;;4938312;29;20223;-78
2021/09/18 09:08:27;;;;;;;4.82;2.97;;;24.40;99.90;;;;;;4938201;29;20235;-79
2021/09/18 09:10:54;;;;;;;3.90;2.70;;;24.70;99.90;;;;;;4938245;29;20707;-79
2021/09/18 09:13:24;;;;;;;3.83;2.92;;;24.50;99.90;;;;;;4938081;29;20287;-79
2021/09/18 09:16:06;;;;;;;5.13;3.20;;;24.30;99.90;;;;;;4938097;29;20240;-80
2021/09/18 09:18:39;;;;;;;4.90;3.42;;;24.20;99.90;;;;;;4938046;29;20212;-79
2021/09/18 09:21:11;;;;;;;4.93;3.30;;;24.00;99.90;;;;;;4938056;29;20240;-79
2021/09/18 09:23:39;;;;;;;7.90;3.58;;;23.70;99.90;;;;;;4938055;29;20687;-78
2021/09/18 09:26:06;;;;;;;6.50;3.50;;;23.80;99.90;;;;;;4938064;29;20212;-76
2021/09/18 09:28:36;;;;;;;6.15;3.80;;;23.40;99.90;;;;;;4938134;29;20212;-79
2021/09/18 09:31:12;;;;;;;4.95;3.20;;;23.00;99.90;;;;;;4937847;29;20770;-80
2021/09/18 09:33:57;;;;;;;6.30;4.13;;;22.20;99.90;;;;;;4938010;29;20323;-79
2021/09/18 09:36:24;;;;;;;5.15;3.53;;;22.20;99.90;;;;;;4937758;29;20217;-80
2021/09/18 09:38:52;;;;;;;8.45;3.13;;;22.30;99.90;;;;;;4937779;29;20205;-78
2021/09/18 09:41:29;;;;;;;5.15;3.03;;;22.60;99.90;;;;;;4937715;29;20263;-75
2021/09/18 09:43:58;;;;;;;4.97;3.40;;;22.70;99.90;;;;;;4937910;29;20236;-80
2021/09/18 09:46:25;;;;;;;6.88;3.90;;;22.50;99.90;;;;;;4937448;29;20212;-79
2021/09/18 09:49:10;;;;;;;4.97;3.40;;;22.30;99.90;;;;;;4937585;29;20213;-75
2021/09/18 09:51:37;;;;;;;4.68;3.35;;;22.40;99.90;;;;;;4937190;29;20229;-80
2021/09/18 09:54:18;;;;;;;5.10;3.13;;;22.60;99.90;;;;;;4937314;29;20237;-78
2021/09/18 09:56:45;;;;;;;4.97;3.50;;;22.90;99.90;;;;;;4937596;29;20213;-78
2021/09/18 09:59:26;;;;;;;4.55;3.10;;;22.90;99.90;;;;;;4937340;29;20215;-77
2021/09/18 10:01:53;;;;;;;6.07;3.35;;;22.70;99.90;;;;;;4937255;29;20235;-74
2021/09/18 10:04:20;;;;;;;6.60;3.08;;;22.50;99.90;;;;;;4937091;29;20228;-79
2021/09/18 10:06:48;;;;;;;4.75;3.20;;;22.50;99.90;;;;;;4936969;29;20213;-78
2021/09/18 10:09:17;;;;;;;4.55;3.40;;;22.60;99.90;;;;;;4937330;29;20220;-79
2021/09/18 10:11:44;;;;;;;6.15;3.17;;;22.50;99.90;;;;;;4936847;29;20228;-79
2021/09/18 10:14:20;;;;;;;5.97;3.25;;;22.20;99.90;;;;;;4936974;29;20611;-79
2021/09/18 10:16:48;;;;;;;6.70;3.30;;;22.10;99.90;;;;;;4937045;29;20212;-80
2021/09/18 10:19:16;;;;;;;7.22;3.75;;;22.10;99.90;;;;;;4937002;29;20220;-78
2021/09/18 10:24:29;;;;;;;6.10;3.80;;;22.00;99.90;;;;;;4936913;29;20288;-79
2021/09/18 10:27:16;;;;;;;4.57;3.25;;;22.00;99.90;;;;;;4936656;29;20216;-79
2021/09/18 10:29:45;;;;;;;8.23;4.20;;;22.10;99.90;;;;;;4936672;29;20213;-77
2021/09/18 10:32:12;;;;;;;6.05;3.65;;;22.20;99.90;;;;;;4936786;29;20224;-79
2021/09/18 10:34:39;;;;;;;9.05;3.80;;;22.20;99.90;;;;;;4936513;29;20236;-79
2021/09/18 10:37:06;;;;;;;6.65;4.25;;;22.40;99.90;;;;;;4936788;29;20208;-79
2021/09/18 10:39:33;;;;;;;7.40;4.20;;;22.40;99.90;;;;;;4936712;29;20575;-77
2021/09/18 10:42:02;;;;;;;4.93;3.22;;;22.30;99.90;;;;;;4936470;29;20236;-78
2021/09/18 10:44:48;;;;;;;5.32;3.55;;;22.20;99.90;;;;;;4937111;29;20213;-78
2021/09/18 10:47:40;;;;;;;5.25;3.80;;;22.10;99.90;;;;;;4936741;29;20215;-78
2021/09/18 10:50:37;;;;;;;6.88;3.75;;;22.00;99.90;;;;;;4936859;29;20208;-79
2021/09/18 10:53:06;;;;;;;5.68;3.70;;;21.90;99.90;;;;;;4936505;29;20238;-72
2021/09/18 10:55:50;;;;;;;5.25;3.60;;;22.00;99.90;;;;;;4936513;29;20208;-75
2021/09/18 10:58:18;;;;;;;5.10;3.10;;;21.90;99.90;;;;;;4936749;29;20213;-77
2021/09/18 11:00:52;;;;;;;5.80;3.78;;;21.90;99.90;;;;;;4936703;29;20324;-78
2021/09/18 11:03:37;;;;;;;6.82;3.67;;;22.10;99.90;;;;;;4936471;29;20575;-77
2021/09/18 11:06:04;;;;;;;4.53;2.90;;;22.10;99.90;;;;;;4936065;29;20223;-79
2021/09/18 11:08:39;;;;;;;5.38;3.13;;;22.40;99.90;;;;;;4935478;29;20671;-74
2021/09/18 11:11:16;;;;;;;5.10;3.05;;;22.60;99.90;;;;;;4936012;29;20228;-79
2021/09/18 11:13:44;;;;;;;5.55;3.20;;;22.90;99.90;;;;;;4936298;29;20242;-80
2021/09/18 11:16:27;;;;;;;6.03;3.17;;;23.20;99.90;;;;;;4936273;29;20205;-81
2021/09/18 11:18:59;;;;;;;4.60;3.25;;;23.10;99.90;;;;;;4936022;29;20264;-77
2021/09/18 11:21:28;;;;;;;4.57;3.00;;;23.00;99.90;;;;;;4935790;29;20233;-80
2021/09/18 11:23:57;;;;;;;5.50;3.35;;;23.00;99.90;;;;;;4936090;29;20209;-80
2021/09/18 11:26:44;;;;;;;4.13;2.78;;;23.20;99.90;;;;;;4936285;29;20208;-79
2021/09/18 11:29:27;;;;;;;6.90;3.50;;;22.80;99.90;;;;;;4936303;29;20244;-80
2021/09/18 11:32:04;;;;;;;5.25;3.17;;;22.90;99.90;;;;;;4935901;29;20263;-79
2021/09/18 11:34:34;;;;;;;6.65;4.07;;;23.00;99.90;;;;;;4936110;29;20246;-79
2021/09/18 11:37:05;;;;;;;4.95;3.67;;;23.20;99.90;;;;;;4936000;29;20682;-79
2021/09/18 11:39:44;;;;;;;5.05;3.30;;;23.30;99.90;;;;;;4936047;29;20292;-79
2021/09/18 11:42:18;;;;;;;6.38;4.05;;;23.30;99.90;;;;;;4935598;29;20239;-80
2021/09/18 11:44:46;;;;;;;6.03;3.53;;;23.00;99.90;;;;;;4936196;29;20205;-72
2021/09/18 11:47:21;;;;;;;6.03;3.60;;;23.00;99.90;;;;;;4935596;29;20563;-79
2021/09/18 11:49:48;;;;;;;8.80;4.10;;;22.90;99.90;;;;;;4935826;29;20210;-73
2021/09/18 11:52:14;;;;;;;6.70;3.88;;;22.60;99.90;;;;;;4935581;29;20236;-77
2021/09/18 11:54:41;;;;;;;6.47;3.33;;;22.40;99.90;;;;;;4935818;29;20243;-74
2021/09/18 11:57:12;;;;;;;6.82;3.95;;;22.50;99.90;;;;;;4935646;29;20205;-78
2021/09/18 11:59:39;;;;;;;5.82;3.60;;;22.50;99.90;;;;;;4935883;29;20208;-79
2021/09/18 12:02:06;;;;;;;5.18;3.05;;;22.40;99.90;;;;;;4935817;29;20228;-79
2021/09/18 12:04:45;;;;;;;5.35;3.30;;;22.60;99.90;;;;;;4935607;29;20220;-76
2021/09/18 12:07:13;;;;;;;5.80;2.92;;;22.70;99.90;;;;;;4935632;29;20212;-78
2021/09/18 12:09:40;;;;;;;4.72;3.17;;;22.80;99.90;;;;;;4935247;29;20213;-76
2021/09/18 12:12:08;;;;;;;5.85;3.70;;;22.80;99.90;;;;;;4935864;29;20239;-71
2021/09/18 12:14:37;;;;;;;5.60;3.63;;;22.70;99.90;;;;;;4935403;29;20234;-77
2021/09/18 12:17:14;;;;;;;6.72;4.20;;;22.60;99.90;;;;;;4935241;29;20227;-76
2021/09/18 12:19:44;;;;;;;6.10;3.60;;;22.40;99.90;;;;;;4935541;29;20204;-73
2021/09/18 12:22:11;;;;;;;6.63;3.92;;;22.40;99.90;;;;;;4938739;29;20229;-72
2021/09/18 12:24:39;;;;;;;5.30;3.40;;;22.60;99.90;;;;;;4939079;29;20213;-73
2021/09/18 12:27:31;;;;;;;6.60;3.67;;;22.70;99.90;;;;;;4939164;29;20212;-76
2021/09/18 12:30:06;;;;;;;5.05;3.25;;;22.70;99.90;;;;;;4938876;29;20205;-80
2021/09/18 12:32:33;;;;;;;8.95;4.22;;;22.70;99.90;;;;;;4939224;29;20228;-78
2021/09/18 12:35:05;;;;;;;6.18;3.00;;;22.70;99.90;;;;;;4938756;29;20239;-78
2021/09/18 12:37:35;;;;;;;6.40;3.67;;;22.80;99.90;;;;;;4939032;29;20673;-80
2021/09/18 12:40:14;;;;;;;5.47;3.55;;;22.80;99.90;;;;;;4939021;29;20205;-79
2021/09/18 12:42:42;;;;;;;7.20;3.90;;;22.90;99.90;;;;;;4938683;29;20311;-74
2021/09/18 12:45:23;;;;;;;5.22;3.42;;;23.00;99.90;;;;;;4938558;29;20213;-74
2021/09/18 12:47:50;;;;;;;6.25;3.58;;;23.00;99.90;;;;;;4938617;29;20209;-80
2021/09/18 12:50:21;;;;;;;5.00;3.03;;;23.10;99.90;;;;;;4938471;29;20213;-79
2021/09/18 12:52:48;;;;;;;4.63;3.35;;;23.10;99.90;;;;;;4938470;29;20229;-77
2021/09/18 12:55:14;;;;;;;3.97;2.17;;;23.10;99.90;;;;;;4938361;29;20236;-76
2021/09/18 12:57:41;;;;;;;6.53;3.25;;;23.20;99.90;;;;;;4938778;29;20293;-74
2021/09/18 13:00:11;;;;;;;5.32;3.30;;;23.30;99.90;;;;;;4938493;29;20213;-74
2021/09/18 13:02:38;;;;;;;7.18;3.45;;;23.10;99.90;;;;;;4938538;29;20232;-77
2021/09/18 13:05:05;;;;;;;5.80;3.38;;;23.30;99.90;;;;;;4938561;29;20221;-79
2021/09/18 13:07:33;;;;;;;6.90;3.83;;;23.40;99.90;;;;;;4938545;29;20212;-78
2021/09/18 13:10:03;;;;;;;5.68;2.72;;;23.40;99.90;;;;;;4938303;29;20205;-72
2021/09/18 13:12:38;;;;;;;4.97;3.08;;;23.60;99.90;;;;;;4938134;29;20607;-78
2021/09/18 13:15:11;;;;;;;6.57;3.58;;;23.90;99.90;;;;;;4937872;29;20247;-78
2021/09/18 13:17:37;;;;;;;5.32;3.30;;;23.60;99.90;;;;;;4938155;29;20213;-75
2021/09/18 13:20:07;;;;;;;4.75;3.05;;;23.60;99.90;;;;;;4938068;29;20220;-72
2021/09/18 13:22:37;;;;;;;4.72;3.35;;;23.80;99.90;;;;;;4937915;29;20590;-77
2021/09/18 13:25:07;;;;;;;5.88;2.92;;;23.70;99.90;;;;;;4938009;29;20307;-79
2021/09/18 13:27:33;;;;;;;4.95;3.17;;;23.80;99.90;;;;;;4937854;29;20212;-76
2021/09/18 13:30:01;;;;;;;6.00;3.88;;;23.80;99.90;;;;;;4937912;29;20224;-72
2021/09/18 13:32:28;;;;;;;5.40;3.72;;;23.60;99.90;;;;;;4937229;29;20232;-72
2021/09/18 13:34:56;;;;;;;11.88;3.10;;;23.60;99.90;;;;;;4937592;29;20712;-74
2021/09/18 13:37:24;;;;;;;5.53;3.67;;;23.40;99.90;;;;;;4937634;29;20664;-78
2021/09/18 13:39:52;;;;;;;5.30;3.05;;;23.20;99.90;;;;;;4938039;29;20208;-77
2021/09/18 13:42:20;;;;;;;5.55;3.50;;;23.20;99.90;;;;;;4937682;29;20232;-72
2021/09/18 13:44:48;;;;;;;5.53;2.95;;;23.00;99.90;;;;;;4937884;29;20212;-80
2021/09/18 13:47:15;;;;;;;5.40;3.47;;;23.00;99.90;;;;;;4938046;29;20674;-78
2021/09/18 13:49:42;;;;;;;4.30;2.70;;;23.00;99.90;;;;;;4937659;29;20213;-79
2021/09/18 13:52:09;;;;;;;4.75;3.00;;;23.00;99.90;;;;;;4937147;29;20233;-80
2021/09/18 13:54:35;;;;;;;4.45;2.90;;;23.10;99.90;;;;;;4937275;29;20593;-78
2021/09/18 13:57:04;;;;;;;4.50;3.00;;;23.10;99.90;;;;;;4942838;29;20208;-73
2021/09/18 13:59:31;;;;;;;4.60;3.28;;;23.30;99.90;;;;;;4955146;29;20239;-73
2021/09/18 14:01:58;;;;;;;4.28;2.90;;;23.50;99.90;;;;;;4950092;28;20224;-79
2021/09/18 14:04:25;;;;;;;6.97;3.58;;;23.60;99.90;;;;;;4956841;28;20323;-72
2021/09/18 14:06:52;;;;;;;5.03;2.97;;;23.20;99.90;;;;;;4955641;29;20211;-72
2021/09/18 14:09:19;;;;;;;3.60;2.72;;;23.20;99.90;;;;;;4955983;29;20215;-73
2021/09/18 14:11:46;;;;;;;4.00;2.70;;;23.30;99.90;;;;;;4951328;29;20323;-77
2021/09/18 14:14:15;;;;;;;4.72;3.05;;;23.20;99.90;;;;;;4954574;29;20212;-80
2021/09/18 14:16:41;;;;;;;5.45;3.42;;;23.00;99.90;;;;;;4955302;29;20259;-79
2021/09/18 14:19:08;;;;;;;5.68;3.30;;;23.10;99.90;;;;;;4954354;29;20388;-74
2021/09/18 14:21:36;;;;;;;3.17;2.58;;;23.30;99.90;;;;;;4963220;28;20235;-74
2021/09/18 14:24:02;;;;;;;4.68;3.20;;;23.30;99.90;;;;;;4973254;28;20211;-74
2021/09/18 14:26:30;;;;;;;11.43;3.20;;;23.20;99.90;;;;;;4973628;28;20325;-80
2021/09/18 14:28:57;;;;;;;4.93;3.45;;;23.10;99.90;;;;;;4973899;28;20243;-75
2021/09/18 14:31:26;;;;;;;4.38;3.30;;;22.90;99.90;;;;;;4959530;28;20793;-77
2021/09/18 14:33:53;;;;;;;3.97;2.78;;;23.00;99.90;;;;;;4973483;28;20273;-72
2021/09/18 14:36:20;;;;;;;6.53;3.47;;;23.20;99.90;;;;;;4973625;28;20239;-72
2021/09/18 14:38:47;;;;;;;6.00;3.45;;;23.00;99.90;;;;;;4973765;28;20207;-78
2021/09/18 14:41:14;;;;;;;4.05;2.92;;;22.90;99.90;;;;;;4958749;28;20224;-76
2021/09/18 14:43:42;;;;;;;4.63;3.10;;;22.80;99.90;;;;;;4953148;28;20218;-77
2021/09/18 14:46:11;;;;;;;5.28;2.63;;;22.90;99.90;;;;;;4953891;29;20211;-74
2021/09/18 14:48:39;;;;;;;4.38;2.63;;;23.00;99.90;;;;;;4953613;29;20214;-80
2021/09/18 14:51:07;;;;;;;4.25;2.95;;;23.00;99.90;;;;;;4953233;29;20228;-75
2021/09/18 14:53:34;;;;;;;5.50;3.45;;;22.80;99.90;;;;;;4954044;29;20296;-74
2021/09/18 14:56:01;;;;;;;3.95;3.08;;;22.80;99.90;;;;;;4953113;29;20322;-72
2021/09/18 14:58:28;;;;;;;3.60;2.63;;;22.70;99.90;;;;;;4953139;29;20212;-72
2021/09/18 15:00:55;;;;;;;3.85;2.55;;;22.70;99.90;;;;;;4953536;29;20286;-77
2021/09/18 15:03:22;;;;;;;3.15;2.38;;;22.80;99.90;;;;;;4953229;29;20208;-75
2021/09/18 15:05:51;;;;;;;4.50;2.92;;;22.90;99.90;;;;;;4953057;29;20278;-74
2021/09/18 15:08:18;;;;;;;4.38;2.78;;;22.70;99.90;;;;;;4954049;29;20238;-77
2021/09/18 15:10:45;;;;;;;4.72;2.97;;;22.60;99.90;;;;;;4960219;28;20296;-74
2021/09/18 15:13:12;;;;;;;4.07;2.90;;;22.60;99.90;;;;;;4955890;29;20214;-73
2021/09/18 15:15:39;;;;;;;3.92;2.50;;;22.60;99.90;;;;;;4954912;29;20235;-73
2021/09/18 15:18:05;;;;;;;3.95;2.70;;;22.60;99.90;;;;;;4953895;29;20214;-74
2021/09/18 15:20:33;;;;;;;3.30;2.50;;;22.60;99.90;;;;;;4953828;29;20707;-76
2021/09/18 15:23:03;;;;;;;4.50;3.08;;;22.60;99.90;;;;;;4954081;29;20208;-74
2021/09/18 15:25:30;;;;;;;4.63;2.72;;;22.60;99.90;;;;;;4952519;29;20226;-73
2021/09/18 15:27:57;;;;;;;4.75;2.35;;;22.50;99.90;;;;;;4955780;29;20216;-72
2021/09/18 15:30:24;;;;;;;4.50;2.80;;;22.50;99.90;;;;;;4955465;29;20220;-72
2021/09/18 15:32:50;;;;;;;4.47;2.40;;;22.40;99.90;;;;;;4954704;29;20678;-73
2021/09/18 15:35:17;;;;;;;4.40;2.70;;;22.50;99.90;;;;;;4954828;29;20231;-73
2021/09/18 15:37:44;;;;;;;3.60;2.67;;;22.50;99.90;;;;;;4954848;29;20212;-73
2021/09/18 15:40:13;;;;;;;3.25;2.33;;;22.40;99.90;;;;;;4955007;29;20222;-73
2021/09/18 15:42:40;;;;;;;3.92;2.75;;;22.40;99.90;;;;;;4954658;29;20710;-72
2021/09/18 15:45:09;;;;;;;2.88;2.40;;;22.50;99.90;;;;;;4954879;29;20686;-72
2021/09/18 15:47:39;;;;;;;4.90;2.50;;;22.40;99.90;;;;;;4955237;29;20208;-72
2021/09/18 15:50:07;;;;;;;3.85;2.38;;;22.40;99.90;;;;;;4955590;29;20210;-72
2021/09/18 15:52:34;;;;;;;4.80;2.58;;;22.40;99.90;;;;;;4954924;29;20227;-71
2021/09/18 15:55:00;;;;;;;4.15;2.80;;;22.50;99.90;;;;;;4955656;28;20230;-73
2021/09/18 15:57:29;;;;;;;4.05;2.90;;;22.40;99.90;;;;;;4958959;29;20214;-72
2021/09/18 15:59:55;;;;;;;3.17;2.25;;;22.30;99.90;;;;;;4958993;29;20212;-72
2021/09/18 16:02:22;;;;;;;3.75;2.30;;;22.20;99.90;;;;;;4958622;29;20227;-72
2021/09/18 16:04:49;;;;;;;4.45;2.55;;;22.20;99.90;;;;;;4958454;29;20212;-72
2021/09/18 16:07:16;;;;;;;3.75;2.30;;;22.20;99.90;;;;;;4958600;29;20207;-72
2021/09/18 16:09:43;;;;;;;2.67;2.40;;;22.20;99.90;;;;;;4958637;29;20212;-72
2021/09/18 16:12:10;;;;;;;5.60;2.47;;;22.10;99.90;;;;;;4958451;29;20595;-72
2021/09/18 16:14:38;;;;;;;3.67;2.38;;;22.10;99.90;;;;;;4958093;29;20215;-71
2021/09/18 16:17:05;;;;;;;3.85;2.60;;;22.20;99.90;;;;;;4958380;29;20239;-72
2021/09/18 16:19:32;;;;;;;3.75;2.70;;;22.10;99.90;;;;;;4957383;29;20212;-73
2021/09/18 16:21:59;;;;;;;3.47;2.90;;;22.00;99.90;;;;;;4957696;29;20228;-72
2021/09/18 16:24:25;;;;;;;3.67;2.50;;;21.90;99.90;;;;;;4957983;29;20208;-72
2021/09/18 16:26:52;;;;;;;5.00;3.03;;;22.00;99.90;;;;;;4958410;29;20208;-72
2021/09/18 16:29:19;;;;;;;3.88;2.83;;;22.00;99.90;;;;;;4957826;29;20208;-72
2021/09/18 16:31:47;;;;;;;3.20;2.42;;;22.00;99.90;;;;;;4957466;29;20224;-73
2021/09/18 16:34:14;;;;;;;4.72;2.70;;;22.00;99.90;;;;;;4957453;29;20208;-73
2021/09/18 16:36:41;;;;;;;5.00;3.17;;;22.20;99.90;;;;;;4957284;29;20243;-72
2021/09/18 16:39:08;;;;;;;5.88;3.00;;;22.30;99.90;;;;;;4957625;29;20233;-72
2021/09/18 16:41:34;;;;;;;5.20;3.17;;;22.10;99.90;;;;;;4957821;29;20228;-72
2021/09/18 16:44:01;;;;;;;5.10;2.90;;;22.10;99.90;;;;;;4957434;29;20211;-72
2021/09/18 16:46:28;;;;;;;4.53;3.22;;;22.00;99.90;;;;;;4957345;29;20659;-72
2021/09/18 16:48:56;;;;;;;4.60;2.97;;;22.10;99.90;;;;;;4957861;29;20208;-72
2021/09/18 16:51:23;;;;;;;3.60;2.78;;;22.10;99.90;;;;;;4957483;29;20239;-72
2021/09/18 16:53:50;;;;;;;5.25;2.90;;;22.20;99.90;;;;;;4957960;29;20299;-72
2021/09/18 16:56:17;;;;;;;4.85;2.60;;;22.10;99.90;;;;;;4957433;29;20287;-71
2021/09/18 16:58:43;;;;;;;4.85;2.88;;;22.20;99.90;;;;;;4957690;29;20243;-72
2021/09/18 17:01:10;;;;;;;5.05;3.03;;;22.10;99.90;;;;;;4957256;29;20235;-72
2021/09/18 17:03:37;;;;;;;4.97;3.03;;;22.10;99.90;;;;;;4957831;29;20211;-72
2021/09/18 17:06:05;;;;;;;3.85;2.80;;;22.20;99.90;;;;;;4957349;28;20208;-72
2021/09/18 17:08:32;;;;;;;5.38;3.42;;;22.00;99.90;;;;;;4956631;29;20208;-72
2021/09/18 17:10:59;;;;;;;5.13;3.15;;;21.70;99.90;;;;;;4957380;29;20246;-72
2021/09/18 17:13:26;;;;;;;6.35;3.10;;;21.50;99.90;;;;;;4957270;29;20231;-72
2021/09/18 17:15:53;;;;;;;4.68;3.28;;;21.50;99.90;;;;;;4957007;29;20715;-72
2021/09/18 17:18:19;;;;;;;5.63;3.20;;;21.40;99.90;;;;;;4957575;29;20216;-72
2021/09/18 17:20:46;;;;;;;5.03;3.67;;;21.10;99.90;;;;;;4956887;29;20224;-72
2021/09/18 17:23:14;;;;;;;5.35;3.70;;;21.00;99.90;;;;;;4957405;29;20212;-72
2021/09/18 17:25:41;;;;;;;5.28;3.80;;;21.00;99.90;;;;;;4957499;29;20670;-72
2021/09/18 17:28:08;;;;;;;6.30;3.85;;;20.90;99.90;;;;;;4957226;29;20674;-72
2021/09/18 17:30:36;;;;;;;4.63;3.42;;;20.70;99.90;;;;;;4957163;29;20578;-72
2021/09/18 17:33:03;;;;;;;5.97;3.95;;;20.70;99.90;;;;;;4957090;29;20204;-72
2021/09/18 17:35:29;;;;;;;5.60;3.60;;;20.70;99.90;;;;;;4957004;29;20239;-72
2021/09/18 17:37:56;;;;;;;6.15;4.20;;;20.50;99.90;;;;;;4957116;29;20222;-72
2021/09/18 17:40:24;;;;;;;6.15;4.15;;;20.40;99.90;;;;;;4956945;29;20212;-72
2021/09/18 17:42:52;;;;;;;5.45;4.03;;;20.40;99.90;;;;;;4957154;29;20211;-72
2021/09/18 17:45:20;;;;;;;9.57;4.78;;;20.40;99.90;;;;;;4957165;29;20234;-72
2021/09/18 17:47:48;;;;;;;6.05;3.97;;;20.30;99.90;;;;;;4957563;29;20204;-72
2021/09/18 17:50:15;;;;;;;6.80;4.32;;;20.30;99.90;;;;;;4956852;29;20240;-72
2021/09/18 17:52:41;;;;;;;5.35;4.00;;;20.30;99.90;;;;;;4956650;29;20235;-72
2021/09/18 17:55:09;;;;;;;6.22;4.35;;;20.20;99.90;;;;;;4956807;29;20215;-71
2021/09/18 17:57:37;;;;;;;5.70;3.70;;;20.30;99.90;;;;;;4956286;29;20642;-72
2021/09/18 18:00:05;;;;;;;4.68;3.30;;;20.30;99.90;;;;;;4956697;29;20212;-71
2021/09/18 18:02:32;;;;;;;5.65;3.28;;;20.30;99.90;;;;;;4956663;29;20279;-72
2021/09/18 18:05:00;;;;;;;5.72;3.78;;;20.30;99.90;;;;;;4956494;29;20219;-72
2021/09/18 18:07:26;;;;;;;5.50;3.70;;;20.30;99.90;;;;;;4956546;29;20244;-72
2021/09/18 18:09:53;;;;;;;4.90;3.05;;;20.30;99.90;;;;;;4956262;29;20579;-71
2021/09/18 18:12:20;;;;;;;4.55;3.20;;;20.20;99.90;;;;;;4956611;29;20224;-71
2021/09/18 18:14:48;;;;;;;5.82;3.45;;;20.20;99.90;;;;;;4956195;29;20204;-71
2021/09/18 18:17:15;;;;;;;6.57;3.65;;;20.10;99.90;;;;;;4956238;29;20240;-71
2021/09/18 18:19:43;;;;;;;4.88;3.17;;;20.00;99.90;;;;;;4956139;28;20283;-71
2021/09/18 18:22:10;;;;;;;4.18;3.20;;;20.00;99.90;;;;;;4956014;29;20323;-71
2021/09/18 18:24:37;;;;;;;5.93;3.97;;;19.90;99.90;;;;;;4956287;29;20214;-72
2021/09/18 18:27:05;;;;;;;4.65;3.05;;;19.80;99.90;;;;;;4956373;29;20203;-72
2021/09/18 18:29:32;;;;;;;6.75;3.20;;;19.80;99.90;;;;;;4956078;29;20548;-72
2021/09/18 18:32:00;;;;;;;5.30;3.35;;;19.70;99.90;;;;;;4955645;29;20726;-71
2021/09/18 18:34:27;;;;;;;4.70;3.22;;;19.70;99.90;;;;;;4955575;29;20208;-71
2021/09/18 18:36:53;;;;;;;5.10;3.25;;;19.70;99.90;;;;;;4955577;29;20240;-72
2021/09/18 18:39:20;;;;;;;4.70;2.92;;;19.70;99.90;;;;;;4955565;29;20574;-72
2021/09/18 18:41:47;;;;;;;6.88;3.40;;;19.60;99.90;;;;;;4955433;29;20734;-72
2021/09/18 18:44:14;;;;;;;6.15;3.75;;;19.60;99.90;;;;;;4955610;29;20208;-72
2021/09/18 18:46:41;;;;;;;5.20;3.45;;;19.50;99.90;;;;;;4955400;29;20739;-72
2021/09/18 18:49:09;;;;;;;5.32;3.75;;;19.40;99.90;;;;;;4955660;29;20587;-71
2021/09/18 18:51:36;;;;;;;6.45;3.67;;;19.20;99.90;;;;;;4955190;29;20738;-72
2021/09/18 18:54:03;;;;;;;4.55;3.20;;;19.10;99.90;;;;;;4955715;29;20679;-72
2021/09/18 18:56:30;;;;;;;5.38;3.45;;;19.00;99.90;;;;;;4955383;29;20586;-73
2021/09/18 18:58:57;;;;;;;5.60;3.40;;;19.00;99.90;;;;;;4955729;29;20208;-72
2021/09/18 19:01:24;;;;;;;4.65;2.90;;;18.90;99.90;;;;;;4955782;29;20611;-72
2021/09/18 19:03:51;;;;;;;6.25;3.00;;;19.00;99.90;;;;;;4955477;29;20215;-72
2021/09/18 19:06:19;;;;;;;5.32;3.28;;;19.10;99.90;;;;;;4955483;29;20595;-71
2021/09/18 19:08:45;;;;;;;4.50;2.97;;;19.20;99.90;;;;;;4955744;29;20215;-72
2021/09/18 19:11:12;;;;;;;5.22;3.03;;;19.20;99.90;;;;;;4955494;29;20734;-71
2021/09/18 19:13:39;;;;;;;3.70;2.55;;;19.20;99.90;;;;;;4955524;29;20212;-72
2021/09/18 19:16:06;;;;;;;4.80;2.90;;;19.20;99.90;;;;;;4955309;29;20236;-72
2021/09/18 19:18:33;;;;;;;6.72;3.30;;;19.30;99.90;;;;;;4955295;29;20208;-71
2021/09/18 19:21:00;;;;;;;5.20;2.78;;;19.10;99.90;;;;;;4955188;29;20708;-72
2021/09/18 19:23:28;;;;;;;4.07;2.65;;;18.90;99.90;;;;;;4955391;29;20204;-72
2021/09/18 19:25:55;;;;;;;3.55;2.45;;;18.80;99.90;;;;;;4955268;29;20208;-72
2021/09/18 19:28:22;;;;;;;5.38;2.95;;;18.80;99.90;;;;;;4954730;29;20658;-72
2021/09/18 19:30:48;;;;;;;4.35;2.85;;;18.70;99.90;;;;;;4954440;29;20618;-72
2021/09/18 19:33:15;;;;;;;5.20;3.13;;;18.90;99.90;;;;;;4955388;29;20214;-72
2021/09/18 19:35:42;;;;;;;7.00;3.22;;;18.90;99.90;;;;;;4955199;29;20208;-72
2021/09/18 19:38:09;;;;;;;5.22;3.00;;;18.80;99.90;;;;;;4955172;29;20247;-73
2021/09/18 19:40:37;;;;;;;3.30;2.38;;;18.90;99.90;;;;;;4955088;29;20250;-71
2021/09/18 19:43:04;;;;;;;3.87;2.97;;;18.90;99.90;;;;;;4954987;29;20302;-72
2021/09/18 19:45:31;;;;;;;5.57;3.07;;;18.80;99.90;;;;;;4955084;29;20212;-72
2021/09/18 19:47:58;;;;;;;5.17;3.40;;;18.70;99.90;;;;;;4955073;29;20222;-72
2021/09/18 19:50:25;;;;;;;7.00;3.63;;;18.70;99.90;;;;;;4954798;29;20667;-72
2021/09/18 19:52:53;;;;;;;6.63;3.50;;;18.70;99.90;;;;;;4954420;29;20654;-72
2021/09/18 19:55:20;;;;;;;5.73;3.40;;;18.60;99.90;;;;;;4954687;29;20208;-72
2021/09/18 19:57:48;;;;;;;6.90;3.83;;;18.50;99.90;;;;;;4954915;29;20235;-72
2021/09/18 20:00:15;;;;;;;5.47;3.30;;;18.50;99.90;;;;;;4955194;29;20307;-72
2021/09/18 20:02:42;;;;;;;5.97;3.93;;;18.50;99.90;;;;;;4954695;29;20236;-72
2021/09/18 20:05:11;;;;;;;6.03;3.80;;;18.40;99.90;;;;;;4955087;29;20242;-71
2021/09/18 20:07:38;;;;;;;6.20;4.30;;;18.40;99.90;;;;;;4954598;29;20575;-73
2021/09/18 20:10:07;;;;;;;5.90;3.87;;;18.30;99.90;;;;;;4954823;29;20215;-72
2021/09/18 20:12:34;;;;;;;7.47;4.43;;;18.20;99.90;;;;;;4954487;29;20224;-73
2021/09/18 20:15:02;;;;;;;5.30;2.87;;;18.30;99.90;;;;;;4954361;29;20210;-71
2021/09/18 20:17:29;;;;;;;6.87;3.50;;;18.40;99.90;;;;;;4954699;29;20235;-72
2021/09/18 20:19:56;;;;;;;5.70;3.23;;;18.50;99.90;;;;;;4954708;29;20223;-73
2021/09/18 20:22:22;;;;;;;4.70;3.50;;;18.40;99.90;;;;;;4954544;29;20416;-73
2021/09/18 20:24:49;;;;;;;5.73;3.50;;;18.40;99.90;;;;;;4954507;29;20208;-72
2021/09/18 20:27:16;;;;;;;5.33;2.90;;;18.30;99.90;;;;;;4954661;29;20208;-72
2021/09/18 20:29:43;;;;;;;4.20;3.00;;;18.40;99.90;;;;;;4954295;29;20216;-72
2021/09/18 20:32:11;;;;;;;7.20;3.00;;;18.30;99.90;;;;;;4954590;29;20250;-72
2021/09/18 20:34:38;;;;;;;5.20;3.00;;;18.30;99.90;;;;;;4954676;29;20210;-72
2021/09/18 20:37:05;;;;;;;6.67;3.27;;;18.30;99.90;;;;;;4954458;29;20239;-72
2021/09/18 20:39:32;;;;;;;5.00;3.17;;;18.20;99.90;;;;;;4954327;29;20290;-72
2021/09/18 20:41:59;;;;;;;4.90;3.17;;;18.10;99.90;;;;;;4956191;28;20236;-72
2021/09/18 20:44:25;;;;;;;5.87;3.70;;;18.10;99.90;;;;;;4958136;29;20215;-73
2021/09/18 20:46:52;;;;;;;6.03;3.60;;;18.10;99.90;;;;;;4957960;29;20218;-72
2021/09/18 20:49:20;;;;;;;4.40;3.10;;;18.00;99.90;;;;;;4957934;29;20212;-73
2021/09/18 20:51:48;;;;;;;7.03;4.37;;;18.00;99.90;;;;;;4957929;29;20239;-72
2021/09/18 20:54:15;;;;;;;7.37;3.70;;;18.00;99.90;;;;;;4957994;29;20204;-72
2021/09/18 20:56:44;;;;;;;3.90;3.20;;;18.00;99.90;;;;;;4957725;29;20235;-72
2021/09/18 20:59:11;;;;;;;6.17;3.53;;;17.90;99.90;;;;;;4957387;29;20204;-72
2021/09/18 21:04:25;;;;;;;6.70;3.80;;;17.90;99.90;;;;;;4957630;29;20223;-73
2021/09/18 21:06:54;;;;;;;6.87;3.80;;;17.80;99.90;;;;;;4957399;29;20215;-73